createdAt,value
2022-10-07T00:01:11.834Z,4.40
2022-10-07T00:03:40.873Z,4.20
2022-10-07T00:06:13.524Z,3.60
2022-10-07T00:08:43.404Z,3.50
2022-10-07T00:11:15.219Z,3.13
2022-10-07T00:13:45.572Z,3.73
2022-10-07T00:16:15.655Z,4.00
2022-10-07T00:18:45.114Z,4.70
2022-10-07T00:21:16.802Z,4.63
2022-10-07T00:23:45.811Z,4.23
2022-10-07T00:26:17.896Z,3.13
2022-10-07T00:28:46.409Z,4.53
2022-10-07T00:31:17.605Z,3.97
2022-10-07T00:33:46.565Z,5.07
2022-10-07T00:36:17.727Z,3.40
2022-10-07T00:38:46.366Z,4.70
2022-10-07T00:41:20.224Z,3.83
2022-10-07T00:43:48.674Z,4.87
2022-10-07T00:46:26.985Z,4.20
2022-10-07T00:48:56.270Z,3.87
2022-10-07T00:51:24.943Z,3.87
2022-10-07T00:53:55.372Z,3.97
2022-10-07T00:56:26.611Z,4.83
2022-10-07T00:58:54.928Z,4.03
2022-10-07T01:01:23.462Z,4.40
2022-10-07T01:03:51.759Z,3.07
2022-10-07T01:06:19.994Z,3.40
2022-10-07T01:08:50.105Z,3.80
2022-10-07T01:11:29.489Z,3.93
2022-10-07T01:14:07.585Z,4.07
2022-10-07T01:16:44.896Z,3.20
2022-10-07T01:19:37.526Z,3.37
2022-10-07T01:22:16.565Z,3.97
2022-10-07T01:24:52.369Z,4.53
2022-10-07T01:27:24.054Z,3.67
2022-10-07T01:29:57.532Z,3.50
2022-10-07T01:32:32.166Z,3.60
2022-10-07T01:35:02.536Z,3.43
2022-10-07T01:37:36.159Z,4.27
2022-10-07T01:40:08.573Z,4.07
2022-10-07T01:42:39.937Z,3.67
2022-10-07T01:45:11.940Z,3.57
2022-10-07T01:47:41.502Z,5.23
2022-10-07T01:50:13.799Z,4.90
2022-10-07T01:52:55.739Z,4.27
2022-10-07T01:55:48.736Z,3.83
2022-10-07T01:58:38.253Z,3.57
2022-10-07T02:01:15.717Z,4.40
2022-10-07T02:04:04.759Z,4.10
2022-10-07T02:06:42.594Z,4.50
2022-10-07T02:09:21.222Z,3.40
2022-10-07T02:11:57.757Z,2.30
2022-10-07T02:14:36.909Z,4.10
2022-10-07T02:17:13.066Z,5.00
2022-10-07T02:19:45.948Z,3.20
2022-10-07T02:22:16.221Z,4.40
2022-10-07T02:24:47.615Z,4.23
2022-10-07T02:27:21.264Z,3.40
2022-10-07T02:29:53.826Z,3.33
2022-10-07T02:32:25.742Z,3.80
2022-10-07T02:34:58.780Z,3.93
2022-10-07T02:37:29.961Z,3.33
2022-10-07T02:39:59.333Z,3.73
2022-10-07T02:42:32.282Z,4.37
2022-10-07T02:45:12.546Z,3.70
2022-10-07T02:47:47.365Z,3.40
2022-10-07T02:50:21.004Z,4.20
2022-10-07T02:52:51.493Z,3.73
2022-10-07T02:55:24.810Z,3.37
2022-10-07T02:57:56.115Z,4.03
2022-10-07T03:00:25.983Z,3.90
2022-10-07T03:02:57.617Z,4.60
2022-10-07T03:05:27.042Z,2.97
2022-10-07T03:07:59.336Z,4.50
2022-10-07T03:10:28.980Z,4.07
2022-10-07T03:12:57.332Z,4.33
2022-10-07T03:15:27.871Z,4.17
2022-10-07T03:17:56.370Z,3.80
2022-10-07T03:20:24.626Z,3.43
2022-10-07T03:22:53.157Z,4.10
2022-10-07T03:25:21.635Z,3.77
2022-10-07T03:27:50.064Z,3.67
2022-10-07T03:30:24.559Z,2.50
2022-10-07T03:32:55.148Z,3.80
2022-10-07T03:35:23.575Z,3.80
2022-10-07T03:37:51.665Z,3.57
2022-10-07T03:40:20.442Z,3.70
2022-10-07T03:42:50.517Z,4.67
2022-10-07T03:45:20.902Z,3.57
2022-10-07T03:47:49.142Z,3.17
2022-10-07T03:50:18.954Z,3.80
2022-10-07T03:52:47.053Z,3.10
2022-10-07T03:55:16.351Z,2.80
2022-10-07T03:58:01.298Z,3.33
2022-10-07T04:00:29.833Z,3.83
2022-10-07T04:02:58.043Z,3.63
2022-10-07T04:05:28.308Z,3.57
2022-10-07T04:07:56.901Z,3.60
2022-10-07T04:10:25.260Z,3.90
2022-10-07T04:12:54.297Z,3.57
2022-10-07T04:15:22.861Z,3.63
2022-10-07T04:17:54.906Z,3.20
2022-10-07T04:20:23.069Z,3.53
2022-10-07T04:22:52.586Z,3.80
2022-10-07T04:25:35.746Z,3.67
2022-10-07T04:28:06.490Z,4.80
2022-10-07T04:30:40.744Z,3.93
2022-10-07T04:33:09.265Z,4.03
2022-10-07T04:35:38.868Z,4.40
2022-10-07T04:38:10.673Z,3.83
2022-10-07T04:40:42.819Z,3.10
2022-10-07T04:43:27.738Z,3.50
2022-10-07T04:46:02.460Z,3.33
2022-10-07T04:48:31.453Z,3.40
2022-10-07T04:51:03.267Z,3.53
2022-10-07T04:53:33.659Z,4.37
2022-10-07T04:56:01.937Z,3.73
2022-10-07T04:58:31.593Z,3.50
2022-10-07T05:01:02.034Z,3.63
2022-10-07T05:03:31.025Z,2.53
2022-10-07T05:06:06.088Z,4.37
2022-10-07T05:08:35.708Z,3.53
2022-10-07T05:11:04.831Z,3.40
2022-10-07T05:13:34.464Z,4.07
2022-10-07T05:16:04.171Z,2.93
2022-10-07T05:18:33.432Z,4.87
2022-10-07T05:21:06.396Z,3.70
2022-10-07T05:23:37.140Z,4.33
2022-10-07T05:26:08.940Z,3.63
2022-10-07T05:28:37.724Z,3.27
2022-10-07T05:31:08.087Z,3.23
2022-10-07T05:33:36.714Z,4.47
2022-10-07T05:36:05.586Z,3.30
2022-10-07T05:38:35.697Z,3.77
2022-10-07T05:41:05.849Z,3.57
2022-10-07T05:43:36.570Z,3.90
2022-10-07T05:46:07.455Z,3.27
2022-10-07T05:48:39.291Z,4.07
2022-10-07T05:51:08.850Z,3.47
2022-10-07T05:53:41.354Z,3.30
2022-10-07T05:56:12.766Z,3.50
2022-10-07T05:58:40.995Z,3.37
2022-10-07T06:01:15.078Z,5.23
2022-10-07T06:03:43.962Z,3.50
2022-10-07T06:06:12.437Z,3.70
2022-10-07T06:08:41.966Z,3.10
2022-10-07T06:11:30.897Z,2.90
2022-10-07T06:14:00.137Z,3.80
2022-10-07T06:16:28.737Z,5.33
2022-10-07T06:18:57.383Z,3.63
2022-10-07T06:21:28.287Z,3.33
2022-10-07T06:23:59.031Z,3.47
2022-10-07T06:26:27.951Z,4.83
2022-10-07T06:28:56.118Z,3.90
2022-10-07T06:31:25.761Z,2.90
2022-10-07T06:33:55.145Z,2.90
2022-10-07T06:36:24.095Z,3.73
2022-10-07T06:38:54.447Z,3.83
2022-10-07T06:41:24.974Z,4.33
2022-10-07T06:43:57.407Z,4.00
2022-10-07T06:46:25.900Z,3.87
2022-10-07T06:48:54.441Z,4.43
2022-10-07T06:51:24.102Z,4.23
2022-10-07T06:53:54.828Z,4.10
2022-10-07T06:56:24.669Z,3.83
2022-10-07T06:58:53.015Z,6.67
2022-10-07T07:01:21.519Z,3.30
2022-10-07T07:03:49.681Z,4.70
2022-10-07T07:06:18.641Z,2.83
2022-10-07T07:08:50.455Z,2.93
2022-10-07T07:11:39.179Z,4.30
2022-10-07T07:14:10.267Z,4.13
2022-10-07T07:16:39.170Z,3.67
2022-10-07T07:19:09.559Z,3.40
2022-10-07T07:21:40.858Z,2.57
2022-10-07T07:24:09.853Z,3.37
2022-10-07T07:26:39.499Z,3.03
2022-10-07T07:29:09.354Z,3.13
2022-10-07T07:31:38.400Z,2.63
2022-10-07T07:34:11.816Z,2.20
2022-10-07T07:36:48.208Z,3.70
2022-10-07T07:39:18.787Z,5.13
2022-10-07T07:41:47.897Z,4.57
2022-10-07T07:44:19.623Z,2.83
2022-10-07T07:46:51.265Z,3.03
2022-10-07T07:49:21.046Z,4.30
2022-10-07T07:51:49.410Z,5.50
2022-10-07T07:54:19.012Z,3.43
2022-10-07T07:56:47.593Z,3.27
2022-10-07T07:59:17.131Z,3.43
2022-10-07T08:01:46.341Z,3.17
2022-10-07T08:04:15.375Z,3.50
2022-10-07T08:06:43.625Z,3.27
2022-10-07T08:09:13.005Z,3.90
2022-10-07T08:11:43.834Z,3.57
2022-10-07T08:14:13.680Z,2.53
2022-10-07T08:16:45.095Z,2.57
2022-10-07T08:19:13.542Z,2.40
2022-10-07T08:21:42.410Z,3.47
2022-10-07T08:24:14.181Z,2.90
2022-10-07T08:26:42.412Z,2.73
2022-10-07T08:29:11.191Z,3.43
2022-10-07T08:31:39.458Z,3.50
2022-10-07T08:34:09.064Z,3.20
2022-10-07T08:36:37.555Z,3.10
2022-10-07T08:39:06.642Z,2.40
2022-10-07T08:41:51.610Z,2.90
2022-10-07T08:44:25.410Z,2.90
2022-10-07T08:46:59.961Z,3.13
2022-10-07T08:49:37.340Z,2.00
2022-10-07T08:52:25.318Z,3.13
2022-10-07T08:54:54.703Z,3.87
2022-10-07T08:57:37.288Z,3.27
2022-10-07T09:00:07.628Z,2.87
2022-10-07T09:02:45.234Z,3.53
2022-10-07T09:05:22.637Z,2.70
2022-10-07T09:07:55.110Z,2.40
2022-10-07T09:10:32.599Z,3.23
2022-10-07T09:13:04.789Z,2.10
2022-10-07T09:15:40.347Z,2.73
2022-10-07T09:18:17.633Z,2.93
2022-10-07T09:20:54.027Z,2.30
2022-10-07T09:23:25.238Z,3.17
2022-10-07T09:25:53.822Z,2.90
2022-10-07T09:28:28.621Z,2.67
2022-10-07T09:30:57.475Z,2.97
2022-10-07T09:33:26.514Z,1.77
2022-10-07T09:35:58.339Z,2.87
2022-10-07T09:38:34.498Z,3.00
2022-10-07T09:41:19.674Z,2.27
2022-10-07T09:44:05.077Z,2.33
2022-10-07T09:46:43.844Z,2.53
2022-10-07T09:49:32.438Z,2.73
2022-10-07T09:52:04.033Z,2.73
2022-10-07T09:54:34.053Z,1.83
2022-10-07T09:57:04.272Z,2.20
2022-10-07T09:59:34.021Z,3.90
2022-10-07T10:02:10.881Z,2.50
2022-10-07T10:04:48.200Z,2.87
2022-10-07T10:07:22.158Z,3.27
2022-10-07T10:09:51.590Z,2.77
2022-10-07T10:12:21.443Z,1.57
2022-10-07T10:14:51.186Z,1.93
2022-10-07T10:17:32.479Z,2.70
2022-10-07T10:20:44.980Z,2.50
2022-10-07T10:23:29.415Z,2.03
2022-10-07T10:26:32.494Z,3.00
2022-10-07T10:29:13.086Z,2.33
2022-10-07T10:32:02.254Z,2.97
2022-10-07T10:34:39.001Z,2.50
2022-10-07T10:37:14.858Z,2.33
2022-10-07T10:39:57.529Z,2.50
2022-10-07T10:42:36.039Z,2.80
2022-10-07T10:45:15.598Z,2.30
2022-10-07T10:48:02.114Z,2.57
2022-10-07T10:50:36.408Z,2.53
2022-10-07T10:53:18.975Z,2.50
2022-10-07T10:56:06.442Z,2.70
2022-10-07T10:58:47.072Z,3.07
2022-10-07T11:01:24.312Z,3.03
2022-10-07T11:04:11.471Z,2.87
2022-10-07T11:06:42.204Z,2.53
2022-10-07T11:09:17.523Z,2.87
2022-10-07T11:11:47.137Z,2.57
2022-10-07T11:14:20.266Z,1.90
2022-10-07T11:16:52.050Z,2.77
2022-10-07T11:19:24.918Z,2.70
2022-10-07T11:21:55.345Z,2.40
2022-10-07T11:24:27.594Z,3.63
2022-10-07T11:27:03.575Z,2.63
2022-10-07T11:29:41.871Z,2.10
2022-10-07T11:32:16.562Z,3.07
2022-10-07T11:34:54.738Z,2.30
2022-10-07T11:37:28.390Z,2.80
2022-10-07T11:39:57.368Z,2.30
2022-10-07T11:42:30.133Z,3.10
2022-10-07T11:45:03.300Z,2.17
2022-10-07T11:47:36.113Z,2.30
2022-10-07T11:50:09.232Z,2.27
2022-10-07T11:52:44.571Z,2.43
2022-10-07T11:55:22.989Z,1.63
2022-10-07T11:57:56.695Z,2.40
2022-10-07T12:00:27.973Z,1.80
2022-10-07T12:02:57.081Z,2.27
2022-10-07T12:05:55.586Z,2.33
2022-10-07T12:08:30.380Z,1.83
2022-10-07T12:11:46.062Z,1.47
2022-10-07T12:14:44.754Z,2.00
2022-10-07T12:17:29.582Z,2.20
2022-10-07T12:20:37.269Z,1.93
2022-10-07T12:23:51.400Z,1.63
2022-10-07T12:26:50.477Z,1.77
2022-10-07T12:29:53.759Z,1.53
2022-10-07T12:32:41.242Z,2.07
2022-10-07T12:35:55.634Z,1.80
2022-10-07T12:38:28.559Z,1.73
2022-10-07T12:41:25.478Z,2.40
2022-10-07T12:44:04.554Z,1.70
2022-10-07T12:46:39.643Z,1.23
2022-10-07T12:49:18.453Z,1.23
2022-10-07T12:51:47.660Z,1.77
2022-10-07T12:54:20.247Z,2.47
2022-10-07T12:56:49.880Z,1.90
2022-10-07T12:59:50.202Z,1.97
2022-10-07T13:02:55.250Z,2.23
2022-10-07T13:05:56.554Z,2.10
2022-10-07T13:09:10.964Z,2.00
2022-10-07T13:12:09.104Z,1.87
2022-10-07T13:14:44.509Z,1.87
2022-10-07T13:17:27.809Z,2.37
2022-10-07T13:20:10.069Z,1.70
2022-10-07T13:22:40.151Z,2.30
2022-10-07T13:25:09.371Z,2.33
2022-10-07T13:27:41.602Z,2.10
2022-10-07T13:30:35.679Z,1.70
2022-10-07T13:33:16.061Z,2.07
2022-10-07T13:35:45.846Z,1.70
2022-10-07T13:38:30.718Z,1.73
2022-10-07T13:41:06.079Z,1.70
2022-10-07T13:43:35.738Z,2.10
2022-10-07T13:46:06.747Z,2.10
2022-10-07T13:48:41.848Z,1.70
2022-10-07T13:51:25.794Z,1.90
2022-10-07T13:53:56.961Z,1.70
2022-10-07T13:56:27.969Z,1.83
2022-10-07T13:58:58.525Z,1.70
2022-10-07T14:01:32.761Z,1.80
2022-10-07T14:04:17.024Z,2.17
2022-10-07T14:07:01.415Z,1.33
2022-10-07T14:09:45.903Z,1.80
2022-10-07T14:12:21.628Z,1.70
2022-10-07T14:14:53.505Z,1.93
2022-10-07T14:17:31.635Z,1.60
2022-10-07T14:20:06.221Z,2.00
2022-10-07T14:22:41.103Z,2.33
2022-10-07T14:25:19.361Z,2.40
2022-10-07T14:28:10.035Z,1.80
2022-10-07T14:30:58.001Z,1.90
2022-10-07T14:33:48.249Z,2.10
2022-10-07T14:36:18.273Z,1.23
2022-10-07T14:38:49.751Z,1.97
2022-10-07T14:41:19.948Z,1.10
2022-10-07T14:43:51.847Z,2.17
2022-10-07T14:46:21.844Z,1.87
2022-10-07T14:48:51.271Z,1.70
2022-10-07T14:51:23.889Z,1.67
2022-10-07T14:53:55.921Z,1.90
2022-10-07T14:56:27.936Z,1.47
2022-10-07T14:58:56.491Z,1.67
2022-10-07T15:01:25.070Z,1.17
2022-10-07T15:03:53.523Z,1.60
2022-10-07T15:06:22.698Z,1.70
2022-10-07T15:08:51.088Z,1.57
2022-10-07T15:11:22.630Z,2.00
2022-10-07T15:13:51.183Z,1.77
2022-10-07T15:16:21.450Z,2.10
2022-10-07T15:18:52.739Z,1.60
2022-10-07T15:21:22.298Z,1.77
2022-10-07T15:23:53.681Z,1.90
2022-10-07T15:26:24.984Z,1.40
2022-10-07T15:28:55.346Z,1.40
2022-10-07T15:31:24.820Z,1.87
2022-10-07T15:33:58.230Z,1.87
2022-10-07T15:36:29.116Z,1.90
2022-10-07T15:38:59.913Z,1.73
2022-10-07T15:41:35.393Z,1.63
2022-10-07T15:44:06.344Z,1.33
2022-10-07T15:46:35.019Z,1.70
2022-10-07T15:49:03.613Z,1.93
2022-10-07T15:51:32.562Z,1.67
2022-10-07T15:54:00.745Z,1.37
2022-10-07T15:56:28.801Z,1.70
2022-10-07T15:59:00.684Z,1.90
2022-10-07T16:01:31.659Z,1.20
2022-10-07T16:04:02.543Z,1.80
2022-10-07T16:06:33.059Z,1.80
2022-10-07T16:09:02.707Z,2.10
2022-10-07T16:11:33.428Z,1.80
2022-10-07T16:14:04.146Z,1.60
2022-10-07T16:16:33.300Z,2.03
2022-10-07T16:19:02.681Z,2.60
2022-10-07T16:21:33.040Z,2.63
2022-10-07T16:24:03.981Z,2.90
2022-10-07T16:26:35.888Z,2.30
2022-10-07T16:29:25.063Z,1.80
2022-10-07T16:31:58.347Z,2.00
2022-10-07T16:34:28.118Z,2.57
2022-10-07T16:36:57.477Z,2.33
2022-10-07T16:39:26.051Z,2.63
2022-10-07T16:41:55.117Z,2.60
2022-10-07T16:44:25.755Z,2.50
2022-10-07T16:46:56.895Z,2.20
2022-10-07T16:49:27.806Z,2.27
2022-10-07T16:51:56.473Z,2.20
2022-10-07T16:54:25.304Z,2.47
2022-10-07T16:56:54.368Z,2.30
2022-10-07T16:59:25.291Z,2.13
2022-10-07T17:01:56.238Z,2.43
2022-10-07T17:04:25.573Z,2.50
2022-10-07T17:06:54.149Z,2.00
2022-10-07T17:09:24.869Z,2.10
2022-10-07T17:11:53.418Z,2.40
2022-10-07T17:14:23.080Z,2.10
2022-10-07T17:16:54.884Z,2.47
2022-10-07T17:19:24.331Z,2.30
2022-10-07T17:21:53.717Z,2.87
2022-10-07T17:24:23.855Z,2.53
2022-10-07T17:26:52.984Z,2.13
2022-10-07T17:29:23.412Z,2.73
2022-10-07T17:31:53.498Z,2.70
2022-10-07T17:34:22.576Z,2.00
2022-10-07T17:36:51.397Z,2.40
2022-10-07T17:39:20.208Z,2.20
2022-10-07T17:41:48.707Z,3.00
2022-10-07T17:44:17.118Z,2.03
2022-10-07T17:46:45.921Z,2.13
2022-10-07T17:49:15.532Z,2.17
2022-10-07T17:51:44.413Z,1.97
2022-10-07T17:54:14.833Z,2.17
2022-10-07T17:56:47.867Z,2.10
2022-10-07T17:59:17.103Z,1.13
2022-10-07T18:01:45.683Z,1.33
2022-10-07T18:04:23.661Z,2.07
2022-10-07T18:06:52.787Z,2.53
2022-10-07T18:09:22.965Z,1.80
2022-10-07T18:12:09.161Z,2.23
2022-10-07T18:14:55.326Z,1.97
2022-10-07T18:17:24.710Z,1.83
2022-10-07T18:19:54.924Z,2.07
2022-10-07T18:22:24.546Z,1.90
2022-10-07T18:24:57.166Z,2.03
2022-10-07T18:27:27.135Z,1.70
2022-10-07T18:29:55.876Z,1.63
2022-10-07T18:32:24.511Z,2.07
2022-10-07T18:34:54.409Z,1.90
2022-10-07T18:37:23.613Z,2.20
2022-10-07T18:39:52.320Z,2.50
2022-10-07T18:42:20.895Z,2.17
2022-10-07T18:44:50.302Z,2.10
2022-10-07T18:47:18.411Z,2.13
2022-10-07T18:49:46.887Z,1.80
2022-10-07T18:52:16.717Z,2.17
2022-10-07T18:54:44.812Z,2.23
2022-10-07T18:57:13.307Z,1.70
2022-10-07T18:59:41.397Z,1.70
2022-10-07T19:02:11.878Z,1.87
2022-10-07T19:04:40.438Z,1.57
2022-10-07T19:07:08.546Z,2.20
2022-10-07T19:09:38.062Z,1.50
2022-10-07T19:12:26.927Z,1.60
2022-10-07T19:14:54.367Z,2.00
2022-10-07T19:17:24.029Z,1.83
2022-10-07T19:19:52.310Z,1.53
2022-10-07T19:22:20.413Z,1.60
2022-10-07T19:25:07.542Z,1.63
2022-10-07T19:27:35.712Z,1.63
2022-10-07T19:30:04.824Z,2.00
2022-10-07T19:32:33.596Z,1.33
2022-10-07T19:35:02.143Z,2.13
2022-10-07T19:37:30.478Z,1.97
2022-10-07T19:40:00.142Z,1.77
2022-10-07T19:42:28.797Z,2.73
2022-10-07T19:44:56.967Z,2.23
2022-10-07T19:47:25.415Z,1.53
2022-10-07T19:49:53.839Z,1.93
2022-10-07T19:52:22.084Z,1.67
2022-10-07T19:54:51.066Z,1.90
2022-10-07T19:57:21.578Z,2.00
2022-10-07T19:59:50.058Z,1.90
2022-10-07T20:02:19.882Z,1.83
2022-10-07T20:04:48.039Z,1.93
2022-10-07T20:07:18.089Z,2.20
2022-10-07T20:09:46.323Z,2.10
2022-10-07T20:12:14.859Z,2.00
2022-10-07T20:14:45.478Z,1.63
2022-10-07T20:17:13.695Z,1.90
2022-10-07T20:19:43.362Z,1.70
2022-10-07T20:22:11.551Z,1.77
2022-10-07T20:24:40.086Z,1.43
2022-10-07T20:27:08.190Z,1.80
2022-10-07T20:29:57.211Z,2.10
2022-10-07T20:32:28.274Z,1.60
2022-10-07T20:34:56.905Z,1.60
2022-10-07T20:37:25.243Z,1.10
2022-10-07T20:40:10.834Z,1.90
2022-10-07T20:42:42.200Z,1.43
2022-10-07T20:45:12.795Z,1.47
2022-10-07T20:47:42.533Z,2.10
2022-10-07T20:50:11.283Z,1.90
2022-10-07T20:52:39.555Z,1.57
2022-10-07T20:55:10.113Z,1.13
2022-10-07T20:57:39.397Z,1.47
2022-10-07T21:00:16.450Z,2.03
2022-10-07T21:02:46.465Z,1.90
2022-10-07T21:05:15.143Z,1.97
2022-10-07T21:07:43.734Z,2.60
2022-10-07T21:10:11.866Z,1.90
2022-10-07T21:12:41.166Z,1.57
2022-10-07T21:15:10.432Z,2.20
2022-10-07T21:17:40.754Z,1.87
2022-10-07T21:20:10.623Z,1.80
2022-10-07T21:22:39.080Z,2.30
2022-10-07T21:25:11.645Z,1.87
2022-10-07T21:27:40.076Z,1.50
2022-10-07T21:30:10.625Z,2.00
2022-10-07T21:32:38.824Z,1.90
2022-10-07T21:35:09.605Z,1.67
2022-10-07T21:37:37.859Z,1.97
2022-10-07T21:40:06.535Z,2.10
2022-10-07T21:42:35.050Z,2.03
2022-10-07T21:45:03.261Z,2.10
2022-10-07T21:47:31.414Z,1.97
2022-10-07T21:49:59.716Z,1.47
2022-10-07T21:52:29.742Z,1.93
2022-10-07T21:54:57.945Z,2.03
2022-10-07T21:57:26.238Z,2.70
2022-10-07T21:59:54.637Z,2.23
2022-10-07T22:02:22.832Z,1.80
2022-10-07T22:04:51.084Z,1.50
2022-10-07T22:07:36.757Z,2.10
2022-10-07T22:10:07.520Z,2.50
2022-10-07T22:12:35.660Z,2.03
2022-10-07T22:15:03.801Z,3.13
2022-10-07T22:17:34.772Z,2.90
2022-10-07T22:20:02.896Z,2.00
2022-10-07T22:22:31.698Z,2.20
2022-10-07T22:25:01.268Z,2.53
2022-10-07T22:27:30.739Z,2.83
2022-10-07T22:29:59.464Z,2.67
2022-10-07T22:32:27.569Z,2.20
2022-10-07T22:35:13.448Z,1.47
2022-10-07T22:37:41.903Z,2.50
2022-10-07T22:40:10.982Z,2.17
2022-10-07T22:42:40.482Z,2.07
2022-10-07T22:45:09.699Z,1.70
2022-10-07T22:47:38.089Z,2.80
2022-10-07T22:50:08.413Z,2.07
2022-10-07T22:52:37.116Z,2.20
2022-10-07T22:55:05.980Z,1.83
2022-10-07T22:57:36.486Z,2.17
2022-10-07T23:00:07.316Z,2.10
2022-10-07T23:02:35.518Z,2.20
2022-10-07T23:05:04.104Z,2.73
2022-10-07T23:07:32.684Z,2.00
2022-10-07T23:10:00.764Z,2.00
2022-10-07T23:12:29.072Z,2.37
2022-10-07T23:14:57.333Z,2.93
2022-10-07T23:17:26.837Z,1.97
2022-10-07T23:19:55.701Z,2.07
2022-10-07T23:22:23.866Z,2.30
2022-10-07T23:24:52.427Z,2.50
2022-10-07T23:27:20.681Z,2.97
2022-10-07T23:29:49.581Z,2.30
2022-10-07T23:32:20.009Z,1.90
2022-10-07T23:34:49.761Z,2.23
2022-10-07T23:37:17.938Z,2.40
2022-10-07T23:39:46.010Z,2.23
2022-10-07T23:42:14.465Z,2.03
2022-10-07T23:44:42.569Z,2.33
2022-10-07T23:47:10.665Z,2.00
2022-10-07T23:49:39.218Z,2.00
2022-10-07T23:52:08.715Z,2.10
2022-10-07T23:54:36.811Z,1.67
2022-10-07T23:57:05.585Z,2.20
2022-10-07T23:59:33.894Z,2.50
